Bark River, Michigan
Current Conditions -  °F | °C
As of 7:15 PM on Thursday 27 Nov 2014 (Local Time) from KESC Reporting Station
Clear Clear  
Wind Chill: 10°   Ceiling: Unl
Heat Index: 10°   Visibility: 10mi
Dew Point:   Wind: 3mph
Humidity: 62%   Direction: 320°NW
Pressure: 30.34"   Gusts: NA
Location:  45.71°N, 87.3°W
Report Text: KESC 280015Z AUTO 32003KT 10SM CLR M12/M18 A3034 RMK AO1
Loading
Personal Weather Stations






























Interactive Weather Map New forecast layout! Learn more

10-Day Weather Forecast

Advertisements
Track Severe Weather on mobile